createdAt,value
2023-03-29T00:02:03.628Z,101451.72
2023-03-29T00:04:30.264Z,101443.31
2023-03-29T00:06:57.374Z,101471.13
2023-03-29T00:09:24.234Z,101470.69
2023-03-29T00:11:51.047Z,101451.75
2023-03-29T00:14:17.650Z,101416.59
2023-03-29T00:16:44.157Z,101430.22
2023-03-29T00:19:11.043Z,101431.69
2023-03-29T00:21:37.819Z,101411.13
2023-03-29T00:24:04.477Z,101407.91
2023-03-29T00:26:30.957Z,101387.19
2023-03-29T00:28:57.434Z,101363.34
2023-03-29T00:31:24.053Z,101324.28
2023-03-29T00:33:50.651Z,101372.16
2023-03-29T00:36:17.188Z,101373.47
2023-03-29T00:38:43.721Z,101366.81
2023-03-29T00:41:10.499Z,101368.75
2023-03-29T00:43:53.551Z,101369.25
2023-03-29T00:46:20.172Z,101365.22
2023-03-29T00:48:47.293Z,101364.44
2023-03-29T00:51:16.821Z,101338.66
2023-03-29T00:53:49.057Z,101368.78
2023-03-29T00:56:24.602Z,101346.44
2023-03-29T00:59:03.534Z,101346.59
2023-03-29T01:04:43.494Z,101335.59
2023-03-29T01:07:17.992Z,101337.22
2023-03-29T01:09:50.851Z,101292.63
2023-03-29T01:12:23.635Z,101321.16
2023-03-29T01:14:59.482Z,101331.41
2023-03-29T01:17:26.043Z,101338.03
2023-03-29T01:19:59.290Z,101339.84
2023-03-29T01:22:31.933Z,101325.09
2023-03-29T01:25:10.461Z,101294.13
2023-03-29T01:28:09.292Z,101320.53
2023-03-29T01:30:48.216Z,101322.84
2023-03-29T01:33:19.236Z,101315.56
2023-03-29T01:35:54.780Z,101313.28
2023-03-29T01:38:39.304Z,101304.19
2023-03-29T01:41:05.893Z,101244.22
2023-03-29T01:43:47.596Z,101301.78
2023-03-29T01:46:37.400Z,101301.63
2023-03-29T01:49:16.452Z,101297.25
2023-03-29T01:52:28.265Z,101293.34
2023-03-29T01:55:18.336Z,101239.06
2023-03-29T01:57:46.641Z,101281.34
2023-03-29T02:00:21.345Z,101294.50
2023-03-29T02:02:51.489Z,101293.69
2023-03-29T02:05:19.441Z,101289.47
2023-03-29T02:07:47.568Z,101280.56
2023-03-29T02:10:15.691Z,101287.69
2023-03-29T02:12:42.450Z,101295.63
2023-03-29T02:15:18.799Z,101224.00
2023-03-29T02:17:46.573Z,101287.69
2023-03-29T02:20:20.471Z,101258.66
2023-03-29T02:22:51.074Z,101284.94
2023-03-29T02:25:18.775Z,101277.97
2023-03-29T02:27:45.992Z,101254.00
2023-03-29T02:30:13.796Z,101270.03
2023-03-29T02:32:51.973Z,101200.69
2023-03-29T02:35:25.243Z,101200.34
2023-03-29T02:37:54.461Z,101253.34
2023-03-29T02:40:23.396Z,101249.31
2023-03-29T02:42:50.301Z,101196.31
2023-03-29T02:45:18.779Z,101252.53
2023-03-29T02:47:51.332Z,101246.06
2023-03-29T02:50:19.836Z,101188.88
2023-03-29T02:53:00.406Z,101184.16
2023-03-29T02:55:29.357Z,101227.75
2023-03-29T02:57:55.817Z,101182.53
2023-03-29T03:00:22.455Z,101187.59
2023-03-29T03:02:49.193Z,101239.56
2023-03-29T03:05:15.734Z,101221.91
2023-03-29T03:07:42.369Z,101222.84
2023-03-29T03:10:10.186Z,101224.66
2023-03-29T03:12:37.033Z,101225.13
2023-03-29T03:15:05.095Z,101219.31
2023-03-29T03:17:32.854Z,101220.25
2023-03-29T03:19:59.979Z,101217.00
2023-03-29T03:22:26.425Z,101189.31
2023-03-29T03:24:52.846Z,101217.78
2023-03-29T03:27:19.345Z,101145.13
2023-03-29T03:29:45.784Z,101219.41
2023-03-29T03:32:12.382Z,101212.25
2023-03-29T03:34:38.873Z,101145.28
2023-03-29T03:37:05.395Z,101215.66
2023-03-29T03:39:31.980Z,101212.13
2023-03-29T03:41:58.465Z,101213.91
2023-03-29T03:44:25.112Z,101210.50
2023-03-29T03:46:51.569Z,101145.94
2023-03-29T03:49:18.039Z,101188.00
2023-03-29T03:51:44.544Z,101204.34
2023-03-29T03:54:11.243Z,101187.31
2023-03-29T03:56:37.764Z,101187.66
2023-03-29T03:59:05.393Z,101207.06
2023-03-29T04:01:31.904Z,101197.19
2023-03-29T04:03:58.432Z,101205.78
2023-03-29T04:06:25.002Z,101195.56
2023-03-29T04:08:51.472Z,101191.38
2023-03-29T04:11:17.935Z,101189.22
2023-03-29T04:13:44.385Z,101175.13
2023-03-29T04:16:10.979Z,101186.19
2023-03-29T04:18:37.627Z,101173.03
2023-03-29T04:21:04.607Z,101159.59
2023-03-29T04:23:31.193Z,101111.25
2023-03-29T04:25:57.634Z,101183.41
2023-03-29T04:28:24.069Z,101172.19
2023-03-29T04:30:50.520Z,101125.16
2023-03-29T04:33:16.992Z,101158.47
2023-03-29T04:35:43.496Z,101150.53
2023-03-29T04:38:10.002Z,101105.72
2023-03-29T04:40:37.243Z,101167.34
2023-03-29T04:43:04.253Z,101148.84
2023-03-29T04:45:30.750Z,101158.53
2023-03-29T04:47:58.209Z,101160.00
2023-03-29T04:50:25.034Z,101159.38
2023-03-29T04:52:51.472Z,101163.91
2023-03-29T04:55:17.933Z,101162.94
2023-03-29T04:57:44.450Z,101144.50
2023-03-29T05:00:11.481Z,101143.00
2023-03-29T05:02:38.029Z,101161.97
2023-03-29T05:05:04.932Z,101123.13
2023-03-29T05:07:31.575Z,101154.63
2023-03-29T05:09:58.032Z,101158.88
2023-03-29T05:12:24.537Z,101160.81
2023-03-29T05:14:51.006Z,101110.19
2023-03-29T05:17:17.524Z,101157.22
2023-03-29T05:19:44.170Z,101149.00
2023-03-29T05:22:10.615Z,101163.84
2023-03-29T05:24:37.148Z,101117.75
2023-03-29T05:27:03.772Z,101173.84
2023-03-29T05:29:30.255Z,101106.69
2023-03-29T05:31:56.761Z,101167.81
2023-03-29T05:34:23.341Z,101169.34
2023-03-29T05:36:49.884Z,101176.34
2023-03-29T05:39:16.406Z,101173.13
2023-03-29T05:41:43.089Z,101167.59
2023-03-29T05:44:09.969Z,101175.50
2023-03-29T05:46:36.516Z,101183.22
2023-03-29T05:49:04.040Z,101155.69
2023-03-29T05:51:30.480Z,101177.88
2023-03-29T05:53:56.967Z,101129.53
2023-03-29T05:56:23.358Z,101088.97
2023-03-29T05:58:50.241Z,101177.00
2023-03-29T06:01:17.237Z,101185.78
2023-03-29T06:03:44.206Z,101194.16
2023-03-29T06:06:12.352Z,101193.69
2023-03-29T06:08:38.813Z,101165.09
2023-03-29T06:11:06.787Z,101083.34
2023-03-29T06:13:34.915Z,101161.75
2023-03-29T06:16:01.661Z,101113.91
2023-03-29T06:18:28.244Z,101149.56
2023-03-29T06:20:54.884Z,101162.84
2023-03-29T06:23:22.666Z,101163.31
2023-03-29T06:25:49.886Z,101150.66
2023-03-29T06:28:16.324Z,101151.69
2023-03-29T06:30:43.548Z,101150.41
2023-03-29T06:33:10.297Z,101147.66
2023-03-29T06:35:37.362Z,101148.91
2023-03-29T06:38:04.248Z,101155.53
2023-03-29T06:40:31.532Z,101151.44
2023-03-29T06:42:58.388Z,101136.88
2023-03-29T06:45:27.485Z,101132.69
2023-03-29T06:47:55.784Z,101143.00
2023-03-29T06:50:22.533Z,101076.78
2023-03-29T06:52:49.923Z,101161.22
2023-03-29T06:55:16.559Z,101167.06
2023-03-29T06:57:43.216Z,101160.75
2023-03-29T07:00:10.905Z,101185.16
2023-03-29T07:02:37.616Z,101179.97
2023-03-29T07:05:04.427Z,101174.44
2023-03-29T07:07:30.956Z,101167.69
2023-03-29T07:09:57.413Z,101153.75
2023-03-29T07:12:24.149Z,101177.53
2023-03-29T07:14:50.629Z,101177.22
2023-03-29T07:17:17.136Z,101135.88
2023-03-29T07:19:43.633Z,101142.97
2023-03-29T07:22:10.127Z,101200.25
2023-03-29T07:24:36.656Z,101150.41
2023-03-29T07:27:04.517Z,101204.19
2023-03-29T07:29:32.339Z,101197.13
2023-03-29T07:31:59.031Z,101203.13
2023-03-29T07:34:25.683Z,101187.69
2023-03-29T07:36:52.140Z,101146.72
2023-03-29T07:39:18.598Z,101207.06
2023-03-29T07:41:45.129Z,101218.47
2023-03-29T07:44:11.640Z,101209.28
2023-03-29T07:46:38.202Z,101206.94
2023-03-29T07:49:04.653Z,101195.69
2023-03-29T07:51:31.174Z,101190.06
2023-03-29T07:53:57.628Z,101202.34
2023-03-29T07:56:24.229Z,101196.06
2023-03-29T07:58:50.719Z,101158.31
2023-03-29T08:01:19.393Z,101124.09
2023-03-29T08:03:46.249Z,101202.94
2023-03-29T08:06:12.672Z,101202.63
2023-03-29T08:08:39.071Z,101202.66
2023-03-29T08:11:05.710Z,101198.19
2023-03-29T08:13:32.292Z,101206.69
2023-03-29T08:15:58.728Z,101207.88
2023-03-29T08:18:25.209Z,101162.47
2023-03-29T08:20:51.758Z,101139.50
2023-03-29T08:23:18.271Z,101192.38
2023-03-29T08:25:46.316Z,101194.44
2023-03-29T08:28:12.990Z,101191.75
2023-03-29T08:30:39.534Z,101162.28
2023-03-29T08:33:06.109Z,101199.75
2023-03-29T08:35:32.659Z,101199.25
2023-03-29T08:37:59.113Z,101196.94
2023-03-29T08:40:28.222Z,101199.56
2023-03-29T08:43:12.369Z,101188.13
2023-03-29T08:45:56.433Z,101182.16
2023-03-29T08:48:33.636Z,101184.22
2023-03-29T08:51:05.209Z,101188.75
2023-03-29T08:53:45.342Z,101177.69
2023-03-29T08:56:16.778Z,101193.22
2023-03-29T08:58:45.145Z,101198.81
2023-03-29T09:01:11.932Z,101202.22
2023-03-29T09:03:50.278Z,101201.31
2023-03-29T09:06:20.145Z,101171.59
2023-03-29T09:08:49.188Z,101186.59
2023-03-29T09:11:24.639Z,101195.59
2023-03-29T09:14:09.339Z,101212.81
2023-03-29T09:16:50.781Z,101192.81
2023-03-29T09:19:37.415Z,101172.97
2023-03-29T09:22:12.840Z,101138.53
2023-03-29T09:25:06.015Z,101080.97
2023-03-29T09:27:58.569Z,101123.59
2023-03-29T09:30:50.562Z,101130.25
2023-03-29T09:33:25.261Z,101122.16
2023-03-29T09:36:04.043Z,101111.72
2023-03-29T09:38:31.104Z,101122.16
2023-03-29T09:41:10.379Z,101055.56
2023-03-29T09:43:41.217Z,101090.41
2023-03-29T09:46:16.880Z,101091.34
2023-03-29T09:48:45.581Z,101100.81
2023-03-29T09:51:14.097Z,101075.53
2023-03-29T09:53:40.643Z,101025.84
2023-03-29T09:56:07.730Z,101050.50
2023-03-29T09:58:34.820Z,101070.97
2023-03-29T10:01:06.368Z,100996.22
2023-03-29T10:03:33.297Z,101079.09
2023-03-29T10:06:01.059Z,101009.84
2023-03-29T10:08:56.018Z,101056.38
2023-03-29T10:11:31.637Z,101009.31
2023-03-29T10:14:02.838Z,101063.22
2023-03-29T10:16:33.875Z,101044.94
2023-03-29T10:19:20.036Z,101101.81
2023-03-29T10:21:51.196Z,101079.91
2023-03-29T10:24:22.840Z,101079.88
2023-03-29T10:26:55.640Z,101079.28
2023-03-29T10:29:24.704Z,101081.44
2023-03-29T10:31:52.512Z,101088.69
2023-03-29T10:34:20.084Z,101037.81
2023-03-29T10:36:59.639Z,101097.06
2023-03-29T10:39:29.645Z,101019.44
2023-03-29T10:41:58.897Z,101120.88
2023-03-29T10:44:33.236Z,101129.78
2023-03-29T10:47:20.451Z,101152.72
2023-03-29T10:49:55.035Z,101156.50
2023-03-29T10:52:23.047Z,101129.53
2023-03-29T10:54:52.593Z,101149.16
2023-03-29T10:57:38.208Z,101181.72
2023-03-29T11:00:17.605Z,101187.91
2023-03-29T11:03:11.560Z,101167.47
2023-03-29T11:05:59.165Z,101171.94
2023-03-29T11:08:51.875Z,101157.66
2023-03-29T11:11:54.178Z,101176.16
2023-03-29T11:14:54.250Z,101184.75
2023-03-29T11:17:35.441Z,101182.59
2023-03-29T11:20:26.619Z,101186.81
2023-03-29T11:23:26.053Z,101186.63
2023-03-29T11:25:57.897Z,101199.81
2023-03-29T11:28:38.537Z,101188.31
2023-03-29T11:31:18.176Z,101172.22
2023-03-29T11:34:12.612Z,101208.78
2023-03-29T11:36:47.758Z,101226.69
2023-03-29T11:39:28.087Z,101218.84
2023-03-29T11:42:01.386Z,101223.47
2023-03-29T11:44:30.555Z,101224.75
2023-03-29T11:46:56.992Z,101213.59
2023-03-29T11:49:29.217Z,101207.66
2023-03-29T11:52:01.685Z,101218.66
2023-03-29T11:54:50.369Z,101222.44
2023-03-29T11:57:38.479Z,101230.28
2023-03-29T12:00:11.257Z,101207.09
2023-03-29T12:02:42.488Z,101215.94
2023-03-29T12:05:22.266Z,101167.25
2023-03-29T12:08:04.465Z,101246.34
2023-03-29T12:10:37.649Z,101231.19
2023-03-29T12:13:19.426Z,101231.84
2023-03-29T12:15:52.702Z,101166.78
2023-03-29T12:18:29.178Z,101210.19
2023-03-29T12:21:06.786Z,101245.53
2023-03-29T12:23:33.851Z,101169.19
2023-03-29T12:26:03.288Z,101189.53
2023-03-29T12:29:03.462Z,101191.78
2023-03-29T12:31:55.042Z,101194.03
2023-03-29T12:34:42.225Z,101185.88
2023-03-29T12:37:08.757Z,101181.91
2023-03-29T12:39:36.884Z,101109.72
2023-03-29T12:42:23.712Z,101188.34
2023-03-29T12:44:58.155Z,101189.16
2023-03-29T12:47:27.447Z,101156.13
2023-03-29T12:49:56.616Z,101175.75
2023-03-29T12:52:30.023Z,101141.59
2023-03-29T12:54:59.921Z,101116.72
2023-03-29T12:57:46.945Z,101162.56
2023-03-29T13:00:27.461Z,101144.19
2023-03-29T13:03:34.592Z,101141.16
2023-03-29T13:06:04.284Z,101164.38
2023-03-29T13:08:40.414Z,101134.03
2023-03-29T13:11:13.064Z,101150.56
2023-03-29T13:13:41.655Z,101160.50
2023-03-29T13:16:20.200Z,101103.59
2023-03-29T13:18:55.431Z,101151.38
2023-03-29T13:21:39.152Z,101148.50
2023-03-29T13:24:23.506Z,101156.25
2023-03-29T13:27:17.212Z,101148.34
2023-03-29T13:30:03.885Z,101163.06
2023-03-29T13:32:39.327Z,101106.06
2023-03-29T13:35:17.126Z,101110.28
2023-03-29T13:38:02.376Z,101141.97
2023-03-29T13:40:41.024Z,101139.88
2023-03-29T13:43:19.059Z,101146.66
2023-03-29T13:46:16.082Z,101143.69
2023-03-29T13:48:42.526Z,101137.28
2023-03-29T13:51:23.064Z,101144.03
2023-03-29T13:54:03.347Z,101118.25
2023-03-29T13:56:40.164Z,101125.41
2023-03-29T13:59:20.426Z,101141.09
2023-03-29T14:01:51.381Z,101111.44
2023-03-29T14:04:24.366Z,101119.41
2023-03-29T14:06:54.379Z,101117.50
2023-03-29T14:09:27.078Z,101122.22
2023-03-29T14:11:54.097Z,101104.44
2023-03-29T14:14:26.985Z,101102.66
2023-03-29T14:16:56.257Z,101091.56
2023-03-29T14:19:35.106Z,101045.25
2023-03-29T14:22:06.909Z,101068.22
2023-03-29T14:24:45.530Z,101125.91
2023-03-29T14:27:12.277Z,101123.69
2023-03-29T14:29:38.946Z,101102.59
2023-03-29T14:32:29.517Z,101107.19
2023-03-29T14:34:56.011Z,101051.38
2023-03-29T14:37:26.917Z,101108.91
2023-03-29T14:39:54.341Z,101110.63
2023-03-29T14:42:25.683Z,101090.81
2023-03-29T14:45:06.363Z,101095.69
2023-03-29T14:47:33.773Z,101092.81
2023-03-29T14:50:01.020Z,101102.28
2023-03-29T14:52:29.825Z,101102.50
2023-03-29T14:54:59.362Z,101097.81
2023-03-29T14:57:27.898Z,101097.56
2023-03-29T14:59:59.997Z,101086.53
2023-03-29T15:02:31.956Z,101078.88
2023-03-29T15:05:02.440Z,101015.81
2023-03-29T15:07:29.831Z,101065.31
2023-03-29T15:09:58.111Z,101065.34
2023-03-29T15:12:25.314Z,101014.81
2023-03-29T15:14:52.830Z,101052.00
2023-03-29T15:17:47.664Z,101055.44
2023-03-29T15:20:29.433Z,101047.09
2023-03-29T15:22:58.112Z,101021.69
2023-03-29T15:25:28.099Z,100997.72
2023-03-29T15:27:59.037Z,100967.63
2023-03-29T15:30:38.063Z,100985.00
2023-03-29T15:33:09.550Z,101012.50
2023-03-29T15:35:36.948Z,100994.72
2023-03-29T15:38:03.417Z,100923.88
2023-03-29T15:40:30.275Z,100988.63
2023-03-29T15:42:56.938Z,100954.84
2023-03-29T15:45:23.468Z,100899.91
2023-03-29T15:47:50.043Z,100958.91
2023-03-29T15:50:16.725Z,100964.75
2023-03-29T15:52:43.315Z,100960.53
2023-03-29T15:55:10.334Z,100953.09
2023-03-29T15:57:37.146Z,100959.63
2023-03-29T16:00:06.370Z,100945.22
2023-03-29T16:02:33.092Z,100932.75
2023-03-29T16:04:59.624Z,100934.13
2023-03-29T16:07:26.126Z,100923.72
2023-03-29T16:09:52.625Z,100927.84
2023-03-29T16:12:19.181Z,100905.09
2023-03-29T16:14:45.664Z,100908.53
2023-03-29T16:17:12.165Z,100906.13
2023-03-29T16:19:38.702Z,100914.38
2023-03-29T16:22:05.386Z,100892.50
2023-03-29T16:24:33.729Z,100908.97
2023-03-29T16:27:01.223Z,100904.97
2023-03-29T16:29:28.306Z,100904.19
2023-03-29T16:31:54.952Z,100888.78
2023-03-29T16:34:22.205Z,100881.78
2023-03-29T16:36:49.702Z,100881.69
2023-03-29T16:39:16.884Z,100808.88
2023-03-29T16:41:43.548Z,100853.78
2023-03-29T16:44:15.933Z,100857.75
2023-03-29T16:46:42.444Z,100862.34
2023-03-29T16:49:13.252Z,100832.06
2023-03-29T16:51:40.543Z,100849.66
2023-03-29T16:54:07.046Z,100850.91
2023-03-29T16:56:33.530Z,100840.38
2023-03-29T16:59:00.001Z,100841.66
2023-03-29T17:01:26.514Z,100771.16
2023-03-29T17:03:53.209Z,100831.84
2023-03-29T17:06:19.724Z,100830.56
2023-03-29T17:08:46.229Z,100831.34
2023-03-29T17:11:12.964Z,100816.88
2023-03-29T17:13:39.732Z,100810.25
2023-03-29T17:16:06.880Z,100821.53
2023-03-29T17:18:33.710Z,100810.47
2023-03-29T17:21:00.312Z,100770.84
2023-03-29T17:23:26.893Z,100799.97
2023-03-29T17:25:56.437Z,100807.50
2023-03-29T17:28:23.808Z,100795.53
2023-03-29T17:30:50.384Z,100796.53
2023-03-29T17:33:18.227Z,100797.31
2023-03-29T17:35:46.427Z,100806.94
2023-03-29T17:38:12.989Z,100793.81
2023-03-29T17:40:39.507Z,100783.84
2023-03-29T17:43:06.180Z,100808.41
2023-03-29T17:45:32.727Z,100793.44
2023-03-29T17:47:59.323Z,100793.78
2023-03-29T17:50:25.899Z,100790.13
2023-03-29T17:52:52.437Z,100773.94
2023-03-29T17:55:19.101Z,100700.50
2023-03-29T17:57:45.652Z,100749.72
2023-03-29T18:00:14.358Z,100761.81
2023-03-29T18:02:41.463Z,100764.56
2023-03-29T18:05:08.898Z,100690.16
2023-03-29T18:07:35.882Z,100739.91
2023-03-29T18:10:02.668Z,100734.31
2023-03-29T18:12:29.471Z,100739.09
2023-03-29T18:14:56.108Z,100749.94
2023-03-29T18:17:23.764Z,100701.75
2023-03-29T18:19:50.345Z,100669.13
2023-03-29T18:22:16.983Z,100749.13
2023-03-29T18:24:43.665Z,100733.38
2023-03-29T18:27:10.312Z,100693.97
2023-03-29T18:29:37.327Z,100675.16
2023-03-29T18:32:04.526Z,100733.25
2023-03-29T18:34:32.396Z,100740.22
2023-03-29T18:36:59.084Z,100685.19
2023-03-29T18:39:25.695Z,100713.75
2023-03-29T18:41:52.184Z,100723.47
2023-03-29T18:44:18.941Z,100720.13
2023-03-29T18:46:45.411Z,100668.03
2023-03-29T18:49:11.966Z,100716.72
2023-03-29T18:51:38.612Z,100730.97
2023-03-29T18:54:05.529Z,100729.84
2023-03-29T18:56:32.131Z,100664.88
2023-03-29T18:58:58.614Z,100720.25
2023-03-29T19:01:25.977Z,100712.59
2023-03-29T19:03:52.441Z,100712.38
2023-03-29T19:06:19.131Z,100708.38
2023-03-29T19:08:45.640Z,100703.03
2023-03-29T19:11:12.617Z,100691.28
2023-03-29T19:13:39.122Z,100680.56
2023-03-29T19:16:06.298Z,100665.72
2023-03-29T19:18:33.452Z,100676.31
2023-03-29T19:21:00.194Z,100591.16
2023-03-29T19:23:26.904Z,100665.16
2023-03-29T19:25:58.968Z,100680.66
2023-03-29T19:28:26.227Z,100672.66
2023-03-29T19:30:53.106Z,100653.13
2023-03-29T19:33:19.988Z,100666.97
2023-03-29T19:35:49.266Z,100671.63
2023-03-29T19:38:15.896Z,100643.19
2023-03-29T19:40:46.835Z,100651.63
2023-03-29T19:43:13.589Z,100649.09
2023-03-29T19:45:40.073Z,100638.28
2023-03-29T19:48:06.815Z,100595.34
2023-03-29T19:50:33.272Z,100624.31
2023-03-29T19:52:59.869Z,100591.25
2023-03-29T19:55:26.435Z,100605.66
2023-03-29T19:57:52.897Z,100608.50
2023-03-29T20:00:19.820Z,100603.50
2023-03-29T20:02:46.305Z,100547.69
2023-03-29T20:05:13.002Z,100539.97
2023-03-29T20:07:39.493Z,100584.44
2023-03-29T20:10:06.420Z,100588.69
2023-03-29T20:12:32.926Z,100590.84
2023-03-29T20:14:59.440Z,100573.41
2023-03-29T20:17:26.048Z,100569.78
2023-03-29T20:19:52.617Z,100554.16
2023-03-29T20:22:19.515Z,100528.47
2023-03-29T20:24:46.030Z,100539.44
2023-03-29T20:27:12.694Z,100537.25
2023-03-29T20:29:39.309Z,100509.47
2023-03-29T20:32:05.873Z,100537.75
2023-03-29T20:34:32.412Z,100547.44
2023-03-29T20:36:58.882Z,100530.19
2023-03-29T20:39:25.984Z,100497.84
2023-03-29T20:41:52.668Z,100483.59
2023-03-29T20:44:20.345Z,100536.47
2023-03-29T20:46:46.974Z,100538.41
2023-03-29T20:49:13.563Z,100480.47
2023-03-29T20:51:40.055Z,100485.53
2023-03-29T20:54:06.878Z,100551.75
2023-03-29T20:56:36.336Z,100528.81
2023-03-29T20:59:02.820Z,100542.50
2023-03-29T21:01:30.043Z,100535.19
2023-03-29T21:03:56.746Z,100537.50
2023-03-29T21:06:23.344Z,100525.38
2023-03-29T21:08:51.421Z,100508.63
2023-03-29T21:11:19.180Z,100460.88
2023-03-29T21:13:46.272Z,100497.72
2023-03-29T21:16:12.842Z,100502.28
2023-03-29T21:18:40.236Z,100481.53
2023-03-29T21:21:08.096Z,100484.16
2023-03-29T21:23:36.320Z,100492.69
2023-03-29T21:26:04.372Z,100489.38
2023-03-29T21:28:31.120Z,100414.59
2023-03-29T21:30:57.726Z,100490.38
2023-03-29T21:33:24.399Z,100481.19
2023-03-29T21:35:50.928Z,100479.34
2023-03-29T21:38:17.724Z,100459.63
2023-03-29T21:40:44.406Z,100414.72
2023-03-29T21:43:11.012Z,100461.81
2023-03-29T21:45:37.639Z,100469.22
2023-03-29T21:48:04.476Z,100457.00
2023-03-29T21:50:33.353Z,100479.03
2023-03-29T21:53:01.589Z,100478.31
2023-03-29T21:55:28.283Z,100486.75
2023-03-29T21:57:55.085Z,100464.06
2023-03-29T22:00:21.705Z,100438.44
2023-03-29T22:02:49.477Z,100510.47
2023-03-29T22:05:16.101Z,100506.94
2023-03-29T22:07:42.681Z,100505.31
2023-03-29T22:10:11.450Z,100522.88
2023-03-29T22:12:39.175Z,100499.50
2023-03-29T22:15:08.087Z,100519.25
2023-03-29T22:17:34.975Z,100527.91
2023-03-29T22:20:01.664Z,100510.47
2023-03-29T22:22:28.729Z,100529.38
2023-03-29T22:24:55.349Z,100521.72
2023-03-29T22:27:23.196Z,100459.38
2023-03-29T22:29:49.931Z,100518.91
2023-03-29T22:32:16.551Z,100516.28
2023-03-29T22:34:43.216Z,100495.88
2023-03-29T22:37:09.709Z,100522.00
2023-03-29T22:39:36.283Z,100540.03
2023-03-29T22:42:02.909Z,100568.31
2023-03-29T22:44:29.362Z,100573.63
2023-03-29T22:46:55.868Z,100606.75
2023-03-29T22:49:22.420Z,100644.97
2023-03-29T22:51:48.920Z,100646.50
2023-03-29T22:54:15.426Z,100660.56
2023-03-29T22:56:41.915Z,100674.66
2023-03-29T22:59:08.643Z,100682.16
2023-03-29T23:01:35.146Z,100702.03
2023-03-29T23:04:01.634Z,100706.50
2023-03-29T23:06:28.144Z,100750.56
2023-03-29T23:08:54.586Z,100782.78
2023-03-29T23:11:21.235Z,100821.47
2023-03-29T23:13:47.648Z,100784.38
2023-03-29T23:16:15.293Z,100848.81
2023-03-29T23:18:41.781Z,100861.09
2023-03-29T23:21:08.336Z,100935.22
2023-03-29T23:23:35.290Z,100918.94
2023-03-29T23:26:02.277Z,100968.09
2023-03-29T23:28:29.395Z,100983.72
2023-03-29T23:31:07.039Z,100980.19
2023-03-29T23:33:35.763Z,100966.47
2023-03-29T23:36:04.704Z,100958.56
2023-03-29T23:38:33.101Z,100886.28
2023-03-29T23:41:03.076Z,100950.47
2023-03-29T23:43:33.022Z,100960.06
2023-03-29T23:46:01.679Z,100954.28
2023-03-29T23:48:28.556Z,100949.72
2023-03-29T23:50:55.384Z,100941.69
2023-03-29T23:53:21.818Z,100961.16
2023-03-29T23:55:48.356Z,100950.63
2023-03-29T23:58:16.065Z,100946.16
